Time;durP1;ratioP1;P1;durP2;ratioP2;P2;SDS_P1;SDS_P2;PMS_P1;PMS_P2;Temp;Humidity;BMP_temperature;BMP_pressure;BME280_temperature;BME280_humidity;BME280_pressure;Samples;Min_cycle;Max_cycle;Signal;HPM_P1;HPM_P2
2021/06/05 00:01:59;;;;;;;4.57;2.60;;;15.40;99.90;;;;;;5072437;28;20214;-76
2021/06/05 00:04:25;;;;;;;3.03;2.83;;;15.60;99.90;;;;;;5071514;28;20704;-77
2021/06/05 00:06:52;;;;;;;4.65;2.50;;;15.60;99.90;;;;;;5071488;28;20206;-77
2021/06/05 00:09:20;;;;;;;4.53;2.97;;;15.70;99.90;;;;;;5072447;28;20206;-76
2021/06/05 00:11:47;;;;;;;7.28;2.90;;;15.70;99.90;;;;;;5071866;28;20234;-76
2021/06/05 00:14:15;;;;;;;3.70;3.33;;;15.70;99.90;;;;;;5072072;28;20202;-76
2021/06/05 00:16:44;;;;;;;3.65;2.80;;;15.60;99.90;;;;;;5071806;28;20209;-77
2021/06/05 00:19:12;;;;;;;7.18;3.30;;;15.60;99.90;;;;;;5072064;28;20244;-77
2021/06/05 00:21:39;;;;;;;3.50;3.00;;;15.60;99.90;;;;;;5071253;28;20271;-78
2021/06/05 00:24:07;;;;;;;4.15;3.80;;;15.50;99.90;;;;;;5071832;28;20213;-77
2021/06/05 00:26:34;;;;;;;4.80;3.33;;;15.40;99.90;;;;;;5071060;28;20205;-77
2021/06/05 00:29:01;;;;;;;5.25;3.42;;;15.40;99.90;;;;;;5071974;28;20213;-77
2021/06/05 00:31:29;;;;;;;4.75;3.65;;;15.30;99.90;;;;;;5071360;28;20259;-77
2021/06/05 00:33:56;;;;;;;8.13;4.10;;;15.40;99.90;;;;;;5071563;28;20229;-77
2021/06/05 00:36:23;;;;;;;4.70;2.88;;;15.30;99.90;;;;;;5071376;28;20590;-76
2021/06/05 00:38:49;;;;;;;8.82;4.10;;;15.30;99.90;;;;;;5071418;28;20557;-76
2021/06/05 00:41:18;;;;;;;4.78;4.30;;;15.30;99.90;;;;;;5071271;28;20202;-76
2021/06/05 00:43:47;;;;;;;4.38;3.97;;;15.30;99.90;;;;;;5071035;28;20225;-76
2021/06/05 00:46:16;;;;;;;5.72;3.85;;;15.40;99.90;;;;;;5071605;28;20217;-76
2021/06/05 00:48:44;;;;;;;3.97;3.58;;;15.40;99.90;;;;;;5071018;28;20206;-77
2021/06/05 00:51:11;;;;;;;8.55;4.13;;;15.40;99.90;;;;;;5070790;28;20612;-76
2021/06/05 00:53:39;;;;;;;5.35;4.70;;;15.40;99.90;;;;;;5071113;28;20599;-76
2021/06/05 00:56:10;;;;;;;6.30;4.65;;;15.40;99.90;;;;;;5071381;28;20202;-76
2021/06/05 00:58:36;;;;;;;7.90;4.15;;;15.40;99.90;;;;;;5070901;28;20201;-76
2021/06/05 01:01:09;;;;;;;5.20;4.45;;;15.40;99.90;;;;;;5071090;28;20279;-76
2021/06/05 01:03:38;;;;;;;8.48;4.90;;;15.40;99.90;;;;;;5070563;28;20213;-76
2021/06/05 01:06:10;;;;;;;7.22;4.78;;;15.30;99.90;;;;;;5070730;28;20255;-76
2021/06/05 01:08:42;;;;;;;4.60;3.80;;;15.20;99.90;;;;;;5070606;28;20214;-76
2021/06/05 01:11:18;;;;;;;6.07;3.70;;;15.20;99.90;;;;;;5070526;28;20218;-76
2021/06/05 01:13:49;;;;;;;5.35;3.85;;;15.10;99.90;;;;;;5070732;28;20201;-76
2021/06/05 01:16:18;;;;;;;10.45;3.25;;;15.20;99.90;;;;;;5070407;28;20248;-75
2021/06/05 01:18:50;;;;;;;11.30;4.20;;;15.10;99.90;;;;;;5069403;28;20243;-75
2021/06/05 01:21:36;;;;;;;7.88;4.38;;;15.10;99.90;;;;;;5070452;28;20225;-76
2021/06/05 01:24:12;;;;;;;7.20;4.97;;;15.00;99.90;;;;;;5070728;28;20202;-76
2021/06/05 01:26:43;;;;;;;6.10;4.53;;;14.90;99.90;;;;;;5070148;28;20210;-76
2021/06/05 01:29:14;;;;;;;8.00;4.55;;;14.80;99.90;;;;;;5070661;28;20210;-76
2021/06/05 01:31:44;;;;;;;7.10;4.97;;;14.80;99.90;;;;;;5070293;28;20624;-76
2021/06/05 01:34:11;;;;;;;6.15;4.68;;;14.80;99.90;;;;;;5070702;28;20205;-76
2021/06/05 01:36:46;;;;;;;10.20;5.38;;;14.80;99.90;;;;;;5070250;28;20209;-76
2021/06/05 01:39:17;;;;;;;8.10;3.92;;;14.70;99.90;;;;;;5070760;28;20212;-76
2021/06/05 01:41:47;;;;;;;6.35;4.15;;;14.80;99.90;;;;;;5070348;28;20214;-76
2021/06/05 01:44:16;;;;;;;5.40;4.05;;;14.80;99.90;;;;;;5070769;28;20210;-76
2021/06/05 01:46:49;;;;;;;4.60;3.80;;;14.80;99.90;;;;;;5070417;28;20217;-76
2021/06/05 01:49:17;;;;;;;6.40;4.72;;;14.90;99.90;;;;;;5070283;28;20213;-77
2021/06/05 01:51:48;;;;;;;6.32;3.95;;;14.80;99.90;;;;;;5069965;28;20237;-77
2021/06/05 01:54:18;;;;;;;8.65;4.65;;;14.70;99.90;;;;;;5070465;28;20194;-77
2021/06/05 01:56:49;;;;;;;5.80;3.97;;;14.70;99.90;;;;;;5070386;28;20214;-78
2021/06/05 01:59:17;;;;;;;5.75;4.78;;;14.70;99.90;;;;;;5070262;28;20206;-78
2021/06/05 02:01:44;;;;;;;4.63;3.75;;;14.70;99.90;;;;;;5069980;28;20210;-79
2021/06/05 02:04:12;;;;;;;4.88;4.43;;;14.70;99.90;;;;;;5069789;28;20560;-78
2021/06/05 02:06:44;;;;;;;7.63;4.60;;;14.80;99.90;;;;;;5070237;28;20243;-78
2021/06/05 02:09:11;;;;;;;7.53;4.35;;;14.80;99.90;;;;;;5070336;28;20210;-77
2021/06/05 02:11:41;;;;;;;5.38;3.92;;;14.80;99.90;;;;;;5069989;28;20236;-76
2021/06/05 02:14:13;;;;;;;6.40;3.95;;;14.80;99.90;;;;;;5070431;28;20210;-76
2021/06/05 02:16:43;;;;;;;7.63;4.05;;;14.80;99.90;;;;;;5069830;28;20213;-76
2021/06/05 02:19:19;;;;;;;4.97;3.42;;;14.70;99.90;;;;;;5069746;28;20662;-76
2021/06/05 02:21:46;;;;;;;5.03;4.03;;;14.60;99.90;;;;;;5069608;28;20263;-77
2021/06/05 02:24:16;;;;;;;4.22;3.83;;;14.50;99.90;;;;;;5070179;28;20569;-77
2021/06/05 02:26:44;;;;;;;7.00;4.28;;;14.50;99.90;;;;;;5069465;28;20376;-77
2021/06/05 02:29:14;;;;;;;6.45;4.70;;;14.50;99.90;;;;;;5070771;28;20213;-76
2021/06/05 02:31:42;;;;;;;4.38;3.97;;;14.40;99.90;;;;;;5073170;28;20603;-78
2021/06/05 02:34:13;;;;;;;6.25;4.47;;;14.50;99.90;;;;;;5074176;28;20206;-78
2021/06/05 02:36:42;;;;;;;5.95;4.05;;;14.50;99.90;;;;;;5073703;28;20210;-77
2021/06/05 02:39:09;;;;;;;6.45;3.67;;;14.50;99.90;;;;;;5060105;28;20237;-78
2021/06/05 02:41:36;;;;;;;6.55;4.65;;;14.50;99.90;;;;;;5073346;28;20202;-77
2021/06/05 02:44:04;;;;;;;8.52;4.68;;;14.60;99.90;;;;;;5073452;28;20237;-77
2021/06/05 02:46:35;;;;;;;7.15;3.75;;;14.70;99.90;;;;;;5070274;28;20691;-80
2021/06/05 02:49:05;;;;;;;8.43;4.80;;;14.80;99.90;;;;;;5073934;28;20255;-80
2021/06/05 02:51:35;;;;;;;7.20;5.18;;;14.90;99.90;;;;;;5073045;28;20640;-77
2021/06/05 02:54:03;;;;;;;11.18;5.32;;;14.80;99.90;;;;;;5073737;28;20198;-77
2021/06/05 02:56:30;;;;;;;7.35;5.10;;;14.80;99.90;;;;;;5073165;28;20590;-77
2021/06/05 02:58:56;;;;;;;6.45;4.70;;;14.70;99.90;;;;;;5073630;28;20206;-77
2021/06/05 03:01:23;;;;;;;8.48;5.65;;;14.70;99.90;;;;;;5073285;28;20700;-76
2021/06/05 03:03:51;;;;;;;9.00;5.97;;;14.60;99.90;;;;;;5073675;28;20700;-76
2021/06/05 03:06:17;;;;;;;8.85;6.00;;;14.60;99.90;;;;;;5073675;28;20202;-78
2021/06/05 03:08:45;;;;;;;9.20;6.03;;;14.50;99.90;;;;;;5072651;28;20739;-77
2021/06/05 03:11:15;;;;;;;6.53;5.47;;;14.50;99.90;;;;;;5073191;28;20229;-79
2021/06/05 03:13:42;;;;;;;10.63;5.18;;;14.50;99.90;;;;;;5072784;28;20623;-77
2021/06/05 03:16:10;;;;;;;10.50;5.55;;;14.60;99.90;;;;;;5072796;28;20217;-77
2021/06/05 03:18:36;;;;;;;9.60;5.15;;;14.50;99.90;;;;;;5072850;28;20210;-77
2021/06/05 03:21:07;;;;;;;12.55;6.50;;;14.50;99.90;;;;;;5072856;28;20268;-78
2021/06/05 03:23:34;;;;;;;8.38;6.43;;;14.50;99.90;;;;;;5072833;28;20358;-77
2021/06/05 03:26:01;;;;;;;6.53;5.78;;;14.40;99.90;;;;;;5073048;28;20214;-77
2021/06/05 03:28:31;;;;;;;11.88;6.50;;;14.40;99.90;;;;;;5072721;28;20263;-76
2021/06/05 03:30:58;;;;;;;9.40;5.63;;;14.40;99.90;;;;;;5072566;28;20226;-77
2021/06/05 03:33:25;;;;;;;11.30;6.57;;;14.30;99.90;;;;;;5072522;28;20202;-76
2021/06/05 03:35:53;;;;;;;9.30;5.68;;;14.10;99.90;;;;;;5073071;28;20206;-76
2021/06/05 03:38:23;;;;;;;12.30;6.68;;;14.10;99.90;;;;;;5072924;28;20207;-77
2021/06/05 03:40:50;;;;;;;9.95;7.03;;;14.00;99.90;;;;;;5072120;28;20198;-77
2021/06/05 03:43:17;;;;;;;10.75;5.85;;;13.90;99.90;;;;;;5073153;28;20233;-76
2021/06/05 03:45:43;;;;;;;6.80;5.60;;;13.90;99.90;;;;;;5072196;28;20210;-77
2021/06/05 03:48:10;;;;;;;9.00;6.30;;;13.80;99.90;;;;;;5072590;28;20210;-77
2021/06/05 03:50:38;;;;;;;7.63;5.63;;;13.80;99.90;;;;;;5072054;28;20780;-78
2021/06/05 03:53:05;;;;;;;8.88;5.13;;;13.70;99.90;;;;;;5072620;28;20614;-78
2021/06/05 03:55:33;;;;;;;8.90;5.18;;;13.70;99.90;;;;;;5071918;28;20213;-77
2021/06/05 03:58:01;;;;;;;8.50;5.07;;;13.60;99.90;;;;;;5072529;28;20638;-76
2021/06/05 04:00:30;;;;;;;7.65;5.38;;;13.70;99.90;;;;;;5071446;28;20658;-77
2021/06/05 04:02:57;;;;;;;7.05;5.85;;;13.60;99.90;;;;;;5072338;28;20206;-77
2021/06/05 04:05:25;;;;;;;9.82;5.20;;;13.60;99.90;;;;;;5072070;28;20263;-76
2021/06/05 04:07:52;;;;;;;7.97;5.65;;;13.50;99.90;;;;;;5072906;28;20202;-77
2021/06/05 04:10:20;;;;;;;8.40;5.55;;;13.40;99.90;;;;;;5072467;28;20213;-77
2021/06/05 04:12:48;;;;;;;5.88;5.15;;;13.40;99.90;;;;;;5071715;28;20800;-77
2021/06/05 04:15:16;;;;;;;7.28;4.80;;;13.40;99.90;;;;;;5071647;28;20680;-77
2021/06/05 04:17:43;;;;;;;8.00;5.65;;;13.50;99.90;;;;;;5071558;28;20540;-77
2021/06/05 04:20:14;;;;;;;6.40;4.95;;;13.50;99.90;;;;;;5072155;28;20214;-77
2021/06/05 04:22:41;;;;;;;7.65;5.10;;;13.40;99.90;;;;;;5071438;28;20218;-77
2021/06/05 04:25:09;;;;;;;8.10;5.70;;;13.50;99.90;;;;;;5071910;28;20614;-76
2021/06/05 04:27:36;;;;;;;7.82;4.78;;;13.60;99.90;;;;;;5071159;28;20206;-76
2021/06/05 04:30:06;;;;;;;6.38;5.07;;;13.80;99.90;;;;;;5071374;28;20230;-76
2021/06/05 04:32:32;;;;;;;5.85;4.85;;;14.00;99.90;;;;;;5071118;28;20802;-77
2021/06/05 04:34:59;;;;;;;6.22;5.05;;;14.00;99.90;;;;;;5071788;28;20233;-77
2021/06/05 04:37:25;;;;;;;6.93;4.75;;;14.00;99.90;;;;;;5071539;28;20260;-76
2021/06/05 04:39:52;;;;;;;4.70;4.30;;;14.10;99.90;;;;;;5071467;28;20206;-76
2021/06/05 04:42:18;;;;;;;5.55;4.50;;;14.20;99.90;;;;;;5071710;28;20268;-77
2021/06/05 04:44:45;;;;;;;7.30;4.53;;;14.30;99.90;;;;;;5070544;28;20255;-77
2021/06/05 04:47:13;;;;;;;5.57;5.07;;;14.20;99.90;;;;;;5070770;28;20210;-77
2021/06/05 04:49:40;;;;;;;11.70;5.35;;;14.10;99.90;;;;;;5070597;28;20210;-76
2021/06/05 04:52:07;;;;;;;6.25;5.38;;;14.10;99.90;;;;;;5069881;28;20234;-74
2021/06/05 04:54:34;;;;;;;6.53;5.13;;;14.10;99.90;;;;;;5070615;28;20688;-75
2021/06/05 04:57:00;;;;;;;6.97;5.38;;;14.20;99.90;;;;;;5071099;28;20264;-74
2021/06/05 04:59:27;;;;;;;6.03;5.38;;;14.30;99.90;;;;;;5071112;28;20213;-75
2021/06/05 05:01:53;;;;;;;7.70;4.85;;;14.40;99.90;;;;;;5070385;28;20209;-74
2021/06/05 05:04:21;;;;;;;9.43;6.00;;;14.50;99.90;;;;;;5071019;28;20692;-75
2021/06/05 05:06:48;;;;;;;7.95;5.85;;;14.50;99.90;;;;;;5070979;28;20206;-73
2021/06/05 05:09:15;;;;;;;7.25;5.03;;;14.60;99.90;;;;;;5070674;28;20203;-73
2021/06/05 05:11:42;;;;;;;8.93;5.60;;;14.60;99.90;;;;;;5070362;28;20237;-75
2021/06/05 05:14:11;;;;;;;6.65;6.05;;;14.60;99.90;;;;;;5070655;28;20210;-74
2021/06/05 05:16:38;;;;;;;5.60;4.50;;;14.60;99.90;;;;;;5070411;28;20210;-76
2021/06/05 05:19:05;;;;;;;6.75;4.70;;;14.70;99.90;;;;;;5070266;28;20206;-74
2021/06/05 05:21:33;;;;;;;9.80;5.70;;;14.80;99.90;;;;;;5068737;28;20211;-72
2021/06/05 05:24:00;;;;;;;7.53;5.65;;;14.80;99.90;;;;;;5070565;28;20203;-72
2021/06/05 05:26:27;;;;;;;10.98;5.80;;;14.80;99.90;;;;;;5070549;28;20202;-72
2021/06/05 05:28:55;;;;;;;5.60;4.65;;;14.90;99.90;;;;;;5070455;28;20206;-72
2021/06/05 05:31:24;;;;;;;6.18;5.57;;;14.90;99.90;;;;;;5069739;28;20280;-72
2021/06/05 05:33:51;;;;;;;5.68;5.18;;;15.00;99.90;;;;;;5070748;28;20202;-72
2021/06/05 05:36:20;;;;;;;7.65;5.22;;;15.00;99.90;;;;;;5070076;28;20210;-72
2021/06/05 05:38:48;;;;;;;5.95;4.65;;;15.00;99.90;;;;;;5070469;28;20203;-72
2021/06/05 05:41:17;;;;;;;6.95;5.28;;;15.00;99.90;;;;;;5068514;28;20740;-72
2021/06/05 05:43:43;;;;;;;14.02;6.18;;;15.10;99.90;;;;;;5069746;28;20210;-72
2021/06/05 05:46:11;;;;;;;6.47;5.40;;;15.00;99.90;;;;;;5069798;28;20206;-72
2021/06/05 05:48:38;;;;;;;6.22;5.07;;;14.90;99.90;;;;;;5070197;28;20207;-72
2021/06/05 05:51:06;;;;;;;8.32;5.63;;;14.90;99.90;;;;;;5069466;28;20214;-72
2021/06/05 05:53:35;;;;;;;5.65;5.13;;;14.90;99.90;;;;;;5068961;28;20612;-73
2021/06/05 05:56:03;;;;;;;7.25;4.70;;;14.90;99.90;;;;;;5059314;28;20685;-73
2021/06/05 05:58:30;;;;;;;5.95;4.80;;;14.90;99.90;;;;;;5070093;28;20205;-71
2021/06/05 06:00:57;;;;;;;7.32;5.07;;;15.00;99.90;;;;;;5069986;28;20209;-72
2021/06/05 06:03:24;;;;;;;8.55;4.78;;;15.10;99.90;;;;;;5070772;28;20206;-71
2021/06/05 06:05:50;;;;;;;6.15;5.43;;;15.00;99.90;;;;;;5073138;28;20692;-72
2021/06/05 06:08:19;;;;;;;9.15;5.10;;;15.00;99.90;;;;;;5074343;28;20206;-71
2021/06/05 06:10:46;;;;;;;5.63;5.10;;;14.90;99.90;;;;;;5073882;28;20205;-72
2021/06/05 06:13:14;;;;;;;10.05;5.78;;;14.90;99.90;;;;;;5074428;28;20287;-71
2021/06/05 06:15:41;;;;;;;6.00;5.45;;;14.90;99.90;;;;;;5073662;28;20202;-72
2021/06/05 06:18:11;;;;;;;8.25;5.45;;;14.80;99.90;;;;;;5074272;28;20579;-72
2021/06/05 06:20:42;;;;;;;11.05;5.20;;;14.80;99.90;;;;;;5071914;28;20752;-70
2021/06/05 06:23:10;;;;;;;11.52;5.18;;;14.70;99.90;;;;;;5075103;28;20217;-69
2021/06/05 06:25:39;;;;;;;8.55;6.15;;;14.70;99.90;;;;;;5080090;28;20202;-70
2021/06/05 06:28:07;;;;;;;9.27;6.50;;;14.80;99.90;;;;;;5073621;28;20234;-69
2021/06/05 06:30:36;;;;;;;8.77;6.85;;;14.80;99.90;;;;;;5072476;28;20615;-70
2021/06/05 06:33:05;;;;;;;8.52;5.88;;;14.90;99.90;;;;;;5077627;28;20226;-70
2021/06/05 06:35:33;;;;;;;8.02;5.90;;;15.20;99.90;;;;;;5073301;28;20202;-70
2021/06/05 06:38:00;;;;;;;7.13;5.43;;;14.90;99.90;;;;;;5073389;28;20293;-70
2021/06/05 06:40:29;;;;;;;10.50;5.13;;;15.00;99.90;;;;;;5073676;28;20209;-69
2021/06/05 06:42:56;;;;;;;9.35;5.30;;;15.30;99.90;;;;;;5073401;28;20209;-70
2021/06/05 06:45:23;;;;;;;9.20;5.97;;;15.30;99.90;;;;;;5080804;28;20217;-70
2021/06/05 06:47:52;;;;;;;7.47;5.07;;;15.30;99.90;;;;;;5073428;28;20217;-70
2021/06/05 06:50:20;;;;;;;7.70;6.45;;;15.40;99.90;;;;;;5073346;28;20252;-70
2021/06/05 06:52:47;;;;;;;8.75;5.05;;;15.40;99.90;;;;;;5072592;28;20613;-69
2021/06/05 06:55:15;;;;;;;7.30;5.75;;;15.70;99.90;;;;;;5072928;28;20210;-68
2021/06/05 06:57:42;;;;;;;5.95;5.32;;;15.80;99.90;;;;;;5072453;28;20308;-69
2021/06/05 07:00:13;;;;;;;7.78;4.82;;;16.20;99.90;;;;;;5072567;28;20264;-69
2021/06/05 07:02:39;;;;;;;6.60;4.35;;;16.60;99.90;;;;;;5073046;28;20210;-69
2021/06/05 07:05:08;;;;;;;6.90;4.78;;;17.00;99.90;;;;;;5073562;28;20210;-68
2021/06/05 07:07:34;;;;;;;9.15;4.32;;;17.10;99.90;;;;;;5072571;28;20202;-71
2021/06/05 07:10:01;;;;;;;5.85;5.00;;;17.30;99.90;;;;;;5073355;28;20603;-70
2021/06/05 07:12:27;;;;;;;6.45;4.45;;;17.40;99.90;;;;;;5072525;28;20237;-69
2021/06/05 07:14:54;;;;;;;8.30;4.13;;;17.20;99.90;;;;;;5073680;28;20205;-70
2021/06/05 07:17:20;;;;;;;7.10;4.68;;;16.80;99.90;;;;;;5072942;28;20210;-69
2021/06/05 07:19:47;;;;;;;4.47;3.92;;;16.70;99.90;;;;;;5072928;28;20214;-70
2021/06/05 07:22:15;;;;;;;5.63;4.63;;;16.80;99.90;;;;;;5073153;28;20218;-70
2021/06/05 07:24:41;;;;;;;6.68;4.07;;;16.80;99.90;;;;;;5072564;28;20202;-69
2021/06/05 07:27:09;;;;;;;5.75;4.82;;;16.50;99.90;;;;;;5072692;28;20210;-69
2021/06/05 07:29:36;;;;;;;9.18;4.57;;;16.40;99.90;;;;;;5072433;28;20234;-68
2021/06/05 07:32:04;;;;;;;8.35;4.70;;;16.30;99.90;;;;;;5073088;28;20256;-70
2021/06/05 07:34:33;;;;;;;6.20;4.78;;;16.30;99.90;;;;;;5072363;28;20301;-69
2021/06/05 07:37:04;;;;;;;5.07;4.18;;;16.30;99.90;;;;;;5072928;28;20202;-69
2021/06/05 07:39:34;;;;;;;6.15;4.63;;;16.30;99.90;;;;;;5072349;28;20202;-69
2021/06/05 07:42:01;;;;;;;9.73;3.95;;;16.50;99.90;;;;;;5072700;28;20264;-68
2021/06/05 07:44:30;;;;;;;6.22;4.13;;;16.70;99.90;;;;;;5072860;28;20202;-69
2021/06/05 07:46:58;;;;;;;4.63;3.95;;;16.80;99.90;;;;;;5073171;28;20203;-69
2021/06/05 07:49:25;;;;;;;3.95;3.55;;;17.00;99.90;;;;;;5072812;28;20206;-68
2021/06/05 07:51:53;;;;;;;7.90;3.13;;;17.20;99.90;;;;;;5072208;28;20240;-69
2021/06/05 07:54:20;;;;;;;3.45;3.15;;;17.30;99.90;;;;;;5072139;28;20259;-69
2021/06/05 07:56:49;;;;;;;4.03;3.70;;;17.60;99.90;;;;;;5071758;28;20619;-69
2021/06/05 07:59:16;;;;;;;5.20;3.38;;;17.70;99.90;;;;;;5072374;28;20233;-69
2021/06/05 08:01:43;;;;;;;7.88;3.17;;;17.70;99.90;;;;;;5072169;28;20209;-69
2021/06/05 08:04:09;;;;;;;5.90;3.33;;;17.50;99.90;;;;;;5071977;28;20202;-70
2021/06/05 08:06:36;;;;;;;2.97;2.70;;;17.60;99.90;;;;;;5071606;28;20263;-70
2021/06/05 08:09:04;;;;;;;5.85;3.67;;;17.60;99.90;;;;;;5072089;28;20259;-70
2021/06/05 08:11:30;;;;;;;4.03;3.45;;;17.70;99.90;;;;;;5071791;28;20249;-71
2021/06/05 08:13:58;;;;;;;3.00;2.80;;;17.80;99.90;;;;;;5072090;28;20206;-70
2021/06/05 08:16:25;;;;;;;7.43;3.38;;;17.90;99.90;;;;;;5072575;28;20217;-70
2021/06/05 08:18:52;;;;;;;10.10;3.85;;;18.10;99.90;;;;;;5071828;28;20202;-70
2021/06/05 08:21:20;;;;;;;4.57;2.72;;;18.20;99.90;;;;;;5071422;28;20221;-70
2021/06/05 08:23:47;;;;;;;6.10;3.30;;;18.40;99.90;;;;;;5071657;28;20641;-70
2021/06/05 08:26:17;;;;;;;4.13;2.78;;;18.10;99.90;;;;;;5071863;28;20210;-71
2021/06/05 08:28:44;;;;;;;3.20;2.90;;;18.20;99.90;;;;;;5071166;28;20206;-71
2021/06/05 08:31:16;;;;;;;4.88;2.63;;;18.30;99.90;;;;;;5071289;28;20206;-70
2021/06/05 08:33:43;;;;;;;2.20;2.00;;;18.40;99.90;;;;;;5071263;28;20202;-70
2021/06/05 08:36:11;;;;;;;5.40;2.45;;;18.50;99.90;;;;;;5071608;28;20289;-71
2021/06/05 08:38:37;;;;;;;2.63;2.40;;;18.50;99.90;;;;;;5071138;28;20198;-71
2021/06/05 08:41:07;;;;;;;3.13;2.65;;;18.50;99.90;;;;;;5071738;28;20202;-70
2021/06/05 08:43:39;;;;;;;4.03;2.80;;;19.70;99.90;;;;;;5071206;28;20260;-71
2021/06/05 08:46:08;;;;;;;3.17;2.63;;;19.70;99.90;;;;;;5071483;28;20666;-71
2021/06/05 08:48:36;;;;;;;2.58;2.22;;;19.60;99.90;;;;;;5070703;28;20214;-71
2021/06/05 08:51:19;;;;;;;3.58;2.50;;;19.20;99.90;;;;;;5071362;28;20661;-71
2021/06/05 08:53:46;;;;;;;2.88;2.22;;;19.30;99.90;;;;;;5070638;28;20714;-71
2021/06/05 08:56:16;;;;;;;2.63;2.22;;;19.50;99.90;;;;;;5071424;28;20213;-71
2021/06/05 08:58:48;;;;;;;3.10;2.45;;;19.30;99.90;;;;;;5070521;28;20259;-71
2021/06/05 09:01:17;;;;;;;3.45;3.13;;;18.80;99.90;;;;;;5070967;28;20673;-71
2021/06/05 09:03:49;;;;;;;2.88;2.50;;;18.50;99.90;;;;;;5070457;28;20213;-71
2021/06/05 09:06:19;;;;;;;6.15;2.35;;;18.50;99.90;;;;;;5071180;28;20202;-72
2021/06/05 09:08:46;;;;;;;2.47;2.13;;;18.80;99.90;;;;;;5070575;28;20560;-71
2021/06/05 09:11:14;;;;;;;4.10;2.13;;;19.00;99.90;;;;;;5070653;28;20210;-71
2021/06/05 09:13:42;;;;;;;5.97;2.13;;;19.90;99.90;;;;;;5070777;28;20263;-71
2021/06/05 09:16:34;;;;;;;3.38;2.22;;;20.80;99.90;;;;;;5070840;28;20202;-71
2021/06/05 09:19:12;;;;;;;1.80;1.65;;;21.50;99.90;;;;;;5070771;28;20345;-71
2021/06/05 09:21:42;;;;;;;7.15;2.17;;;20.40;99.90;;;;;;5070555;28;20575;-72
2021/06/05 09:24:25;;;;;;;3.10;2.30;;;19.60;99.90;;;;;;5070946;28;20206;-72
2021/06/05 09:27:06;;;;;;;5.60;2.20;;;19.20;99.90;;;;;;5070785;28;20264;-71
2021/06/05 09:29:47;;;;;;;1.88;1.73;;;19.30;99.90;;;;;;5070168;28;20205;-71
2021/06/05 09:32:15;;;;;;;2.00;1.90;;;19.30;99.90;;;;;;5070684;28;20649;-71
2021/06/05 09:34:46;;;;;;;3.25;2.60;;;19.40;99.90;;;;;;5070158;28;20202;-71
2021/06/05 09:37:28;;;;;;;4.43;2.53;;;19.90;99.90;;;;;;5070645;28;20202;-71
2021/06/05 09:40:09;;;;;;;5.97;2.75;;;20.20;99.90;;;;;;5070028;28;20205;-71
2021/06/05 09:42:41;;;;;;;3.45;2.10;;;20.20;99.90;;;;;;5070251;28;20214;-72
2021/06/05 09:45:31;;;;;;;1.92;1.83;;;20.10;99.90;;;;;;5070347;28;20225;-71
2021/06/05 09:48:19;;;;;;;2.63;1.88;;;20.80;99.90;;;;;;5070563;28;20217;-72
2021/06/05 09:50:48;;;;;;;2.00;1.80;;;21.10;99.90;;;;;;5070304;28;20210;-71
2021/06/05 09:53:19;;;;;;;3.65;2.45;;;21.40;99.90;;;;;;5070072;28;20335;-71
2021/06/05 09:55:46;;;;;;;3.53;1.98;;;22.00;99.90;;;;;;5070023;28;20199;-71
2021/06/05 09:58:32;;;;;;;4.43;2.47;;;22.80;99.90;;;;;;5070384;28;20677;-71
2021/06/05 10:01:14;;;;;;;2.78;2.08;;;22.90;99.90;;;;;;5070523;28;20202;-71
2021/06/05 10:03:41;;;;;;;2.65;1.95;;;21.60;99.90;;;;;;5070423;28;20232;-71
2021/06/05 10:06:31;;;;;;;8.85;2.40;;;21.70;99.90;;;;;;5069993;28;20206;-71
2021/06/05 10:08:57;;;;;;;3.40;2.45;;;21.60;99.90;;;;;;5069971;28;20747;-71
2021/06/05 10:11:30;;;;;;;3.25;2.03;;;21.80;99.90;;;;;;5070525;28;20244;-72
2021/06/05 10:14:01;;;;;;;2.67;1.95;;;21.00;99.90;;;;;;5070264;28;20210;-71
2021/06/05 10:16:28;;;;;;;2.33;2.13;;;21.70;99.90;;;;;;5070232;28;20564;-70
2021/06/05 10:19:00;;;;;;;2.45;2.17;;;25.10;99.90;;;;;;5070475;28;20706;-71
2021/06/05 10:21:35;;;;;;;2.00;1.80;;;30.70;99.90;;;;;;5070019;28;20217;-71
2021/06/05 10:24:05;;;;;;;1.58;1.48;;;29.10;99.90;;;;;;5070369;28;20209;-71
2021/06/05 10:26:36;;;;;;;3.17;1.60;;;26.00;99.90;;;;;;5069873;28;20213;-71
2021/06/05 10:29:08;;;;;;;2.80;2.08;;;24.10;99.90;;;;;;5070228;28;20198;-71
2021/06/05 10:31:35;;;;;;;3.53;2.33;;;22.40;99.90;;;;;;5069644;28;20601;-70
2021/06/05 10:34:07;;;;;;;2.28;1.80;;;21.50;99.90;;;;;;5070123;28;20279;-71
2021/06/05 10:36:41;;;;;;;2.50;2.15;;;21.20;99.90;;;;;;5069220;28;20592;-71
2021/06/05 10:39:10;;;;;;;1.52;1.40;;;20.60;99.90;;;;;;5069854;28;20738;-70
2021/06/05 10:41:41;;;;;;;2.42;2.22;;;20.50;99.90;;;;;;5069246;28;20626;-71
2021/06/05 10:44:09;;;;;;;5.10;2.42;;;20.40;99.90;;;;;;5070279;28;20210;-71
2021/06/05 10:46:44;;;;;;;3.50;2.08;;;21.40;99.90;;;;;;5069409;28;20628;-71
2021/06/05 10:49:20;;;;;;;2.80;2.53;;;22.20;99.90;;;;;;5069707;28;20209;-70
2021/06/05 10:51:56;;;;;;;3.08;2.00;;;21.90;99.90;;;;;;5072699;28;20259;-71
2021/06/05 10:54:27;;;;;;;4.75;2.75;;;21.30;99.90;;;;;;5073575;28;20209;-69
2021/06/05 10:57:02;;;;;;;2.83;2.03;;;20.80;99.90;;;;;;5073479;28;20206;-71
2021/06/05 10:59:48;;;;;;;1.67;1.55;;;21.00;99.90;;;;;;5073337;28;20216;-70
2021/06/05 11:02:40;;;;;;;2.03;1.60;;;20.70;99.90;;;;;;5073123;28;20206;-70
2021/06/05 11:05:42;;;;;;;2.45;1.65;;;21.50;99.90;;;;;;5073001;28;20678;-69
2021/06/05 11:08:51;;;;;;;3.42;2.28;;;22.10;99.90;;;;;;5073336;28;20264;-70
2021/06/05 11:11:45;;;;;;;3.72;2.30;;;21.40;99.90;;;;;;5067593;28;20206;-70
2021/06/05 11:14:41;;;;;;;5.47;1.70;;;20.50;99.90;;;;;;5072773;28;20216;-69
2021/06/05 11:17:30;;;;;;;2.28;1.98;;;21.20;99.90;;;;;;5073385;28;20210;-69
2021/06/05 11:20:40;;;;;;;3.83;2.58;;;21.90;99.90;;;;;;5073091;28;20202;-72
2021/06/05 11:23:25;;;;;;;1.83;1.67;;;21.40;99.90;;;;;;5058875;28;20241;-69
2021/06/05 11:25:54;;;;;;;3.58;1.77;;;20.70;99.90;;;;;;5072816;28;20661;-69
2021/06/05 11:28:45;;;;;;;3.33;2.42;;;20.40;99.90;;;;;;5072913;28;20218;-70
2021/06/05 11:31:48;;;;;;;1.65;1.55;;;20.50;99.90;;;;;;5072917;28;20214;-70
2021/06/05 11:34:54;;;;;;;1.92;1.83;;;20.70;99.90;;;;;;5072854;28;20213;-69
2021/06/05 11:37:47;;;;;;;2.33;1.90;;;21.30;99.90;;;;;;5072259;28;20297;-70
2021/06/05 11:40:34;;;;;;;2.83;1.45;;;21.70;99.90;;;;;;5073101;28;20210;-70
2021/06/05 11:43:00;;;;;;;1.92;1.83;;;21.70;99.90;;;;;;5072293;28;20311;-69
2021/06/05 11:45:52;;;;;;;2.15;1.70;;;21.90;99.90;;;;;;5072884;28;20214;-69
2021/06/05 11:48:47;;;;;;;3.03;1.63;;;21.90;99.90;;;;;;5072387;28;20202;-70
2021/06/05 11:51:34;;;;;;;3.03;1.65;;;22.30;99.90;;;;;;5072760;28;20234;-69
2021/06/05 11:54:13;;;;;;;2.22;1.50;;;22.10;99.90;;;;;;5072472;28;20202;-69
2021/06/05 11:56:47;;;;;;;2.05;1.83;;;22.00;99.90;;;;;;5072276;28;20221;-69
2021/06/05 11:59:23;;;;;;;2.17;1.75;;;21.80;99.90;;;;;;5072307;28;20206;-70
2021/06/05 12:01:51;;;;;;;4.88;1.50;;;21.50;99.90;;;;;;5070879;28;20697;-70
2021/06/05 12:04:22;;;;;;;2.30;1.88;;;21.30;99.90;;;;;;5072258;28;20205;-70
2021/06/05 12:06:51;;;;;;;2.10;1.80;;;21.80;99.90;;;;;;5072044;28;20217;-70
2021/06/05 12:09:19;;;;;;;2.05;1.42;;;21.60;99.90;;;;;;5072192;28;20210;-69
2021/06/05 12:11:51;;;;;;;1.80;1.42;;;21.80;99.90;;;;;;5071803;28;20206;-69
2021/06/05 12:14:35;;;;;;;2.85;2.28;;;22.50;99.90;;;;;;5072106;28;20214;-70
2021/06/05 12:17:06;;;;;;;11.02;9.95;;;22.80;99.90;;;;;;5072046;28;20202;-69
2021/06/05 12:19:35;;;;;;;1.98;1.88;;;22.30;99.90;;;;;;5071624;28;20202;-69
2021/06/05 12:22:13;;;;;;;2.42;1.83;;;22.90;99.90;;;;;;5072099;28;20214;-69
2021/06/05 12:24:43;;;;;;;1.52;1.42;;;22.50;99.90;;;;;;5071488;28;20573;-69
2021/06/05 12:27:19;;;;;;;2.22;1.45;;;22.00;99.90;;;;;;5071845;28;20221;-69
2021/06/05 12:29:46;;;;;;;1.73;1.58;;;21.80;99.90;;;;;;5071091;28;20297;-70
2021/06/05 12:32:16;;;;;;;1.65;1.50;;;21.70;99.90;;;;;;5071395;28;20709;-69
2021/06/05 12:34:43;;;;;;;4.18;2.30;;;22.10;99.90;;;;;;5071589;28;20198;-70
2021/06/05 12:37:19;;;;;;;3.75;1.58;;;22.40;99.90;;;;;;5071853;28;20291;-69
2021/06/05 12:39:49;;;;;;;5.50;1.95;;;22.70;99.90;;;;;;5070908;28;20205;-71
2021/06/05 12:42:23;;;;;;;3.13;1.85;;;23.10;99.90;;;;;;5071569;28;20214;-69
2021/06/05 12:44:53;;;;;;;2.45;1.30;;;23.50;99.90;;;;;;5071080;28;20239;-69
2021/06/05 12:47:25;;;;;;;2.85;1.80;;;23.40;99.90;;;;;;5071761;28;20214;-69
2021/06/05 12:49:52;;;;;;;1.90;1.70;;;22.60;99.90;;;;;;5071350;28;20206;-70
2021/06/05 12:52:28;;;;;;;1.27;1.17;;;22.40;99.90;;;;;;5071328;28;20233;-69
2021/06/05 12:55:10;;;;;;;2.05;1.38;;;22.70;99.90;;;;;;5071278;28;20293;-69
2021/06/05 12:57:40;;;;;;;2.53;1.42;;;23.20;99.90;;;;;;5071041;28;20206;-70
2021/06/05 13:00:21;;;;;;;1.40;1.30;;;23.10;99.90;;;;;;5070813;28;20670;-69
2021/06/05 13:02:50;;;;;;;1.60;1.50;;;23.10;99.90;;;;;;5070974;28;20206;-70
2021/06/05 13:05:19;;;;;;;5.07;0.85;;;23.40;99.90;;;;;;5071031;28;20206;-69